createdAt,value
2018-12-15T00:02:25.711Z,11.07
2018-12-15T00:04:55.366Z,12.63
2018-12-15T00:07:25.315Z,11.63
2018-12-15T00:09:55.056Z,12.47
2018-12-15T00:12:24.222Z,12.83
2018-12-15T00:14:53.392Z,11.90
2018-12-15T00:17:22.262Z,12.77
2018-12-15T00:19:51.817Z,13.67
2018-12-15T00:22:21.186Z,15.27
2018-12-15T00:24:52.952Z,12.93
2018-12-15T00:27:21.734Z,13.47
2018-12-15T00:29:51.109Z,14.47
2018-12-15T00:32:19.909Z,12.57
2018-12-15T00:34:48.772Z,13.50
2018-12-15T00:37:17.548Z,14.03
2018-12-15T00:39:46.440Z,12.97
2018-12-15T00:42:14.788Z,12.40
2018-12-15T00:44:43.611Z,13.47
2018-12-15T00:47:13.940Z,12.53
2018-12-15T00:49:43.076Z,12.37
2018-12-15T00:52:11.856Z,12.47
2018-12-15T00:54:41.177Z,14.80
2018-12-15T00:57:10.618Z,13.53
2018-12-15T00:59:39.786Z,13.53
2018-12-15T01:02:08.096Z,15.03
2018-12-15T01:04:36.702Z,14.80
2018-12-15T01:07:05.175Z,12.73
2018-12-15T01:09:33.303Z,14.57
2018-12-15T01:12:02.371Z,14.87
2018-12-15T01:14:32.255Z,14.50
2018-12-15T01:17:01.469Z,14.03
2018-12-15T01:19:30.106Z,14.60
2018-12-15T01:21:58.607Z,14.57
2018-12-15T01:24:27.531Z,14.13
2018-12-15T01:26:55.974Z,13.13
2018-12-15T01:29:24.905Z,14.63
2018-12-15T01:31:54.104Z,11.97
2018-12-15T01:34:23.273Z,13.70
2018-12-15T01:36:52.268Z,12.73
2018-12-15T01:39:21.136Z,13.73
2018-12-15T01:41:50.169Z,13.33
2018-12-15T01:44:18.978Z,12.13
2018-12-15T01:46:47.884Z,11.57
2018-12-15T01:49:16.485Z,12.57
2018-12-15T01:51:45.327Z,13.53
2018-12-15T01:54:13.917Z,13.93
2018-12-15T01:56:42.503Z,12.77
2018-12-15T01:59:10.763Z,13.07
2018-12-15T02:01:39.166Z,12.60
2018-12-15T02:04:07.927Z,12.20
2018-12-15T02:06:36.583Z,12.23
2018-12-15T02:09:05.862Z,13.33
2018-12-15T02:11:34.359Z,12.30
2018-12-15T02:14:02.549Z,13.30
2018-12-15T02:16:30.743Z,13.13
2018-12-15T02:18:58.911Z,12.70
2018-12-15T02:21:27.825Z,12.80
2018-12-15T02:23:57.095Z,14.40
2018-12-15T02:26:26.126Z,12.13
2018-12-15T02:28:55.390Z,13.97
2018-12-15T02:31:24.165Z,12.07
2018-12-15T02:33:53.218Z,11.00
2018-12-15T02:36:21.874Z,13.60
2018-12-15T02:38:50.789Z,12.73
2018-12-15T02:41:19.451Z,13.17
2018-12-15T02:43:48.218Z,15.10
2018-12-15T02:46:17.168Z,12.83
2018-12-15T02:48:46.310Z,13.87
2018-12-15T02:51:15.334Z,13.33
2018-12-15T02:53:44.280Z,12.37
2018-12-15T02:56:12.886Z,14.03
2018-12-15T02:58:41.538Z,14.03
2018-12-15T03:01:16.131Z,13.50
2018-12-15T03:03:45.810Z,12.73
2018-12-15T03:06:14.195Z,14.70
2018-12-15T03:08:42.425Z,13.30
2018-12-15T03:11:10.542Z,15.30
2018-12-15T03:13:38.836Z,14.30
2018-12-15T03:16:07.262Z,13.77
2018-12-15T03:18:35.457Z,13.63
2018-12-15T03:21:04.084Z,15.10
2018-12-15T03:23:32.191Z,14.77
2018-12-15T03:26:00.525Z,13.77
2018-12-15T03:28:28.621Z,16.27
2018-12-15T03:30:56.755Z,14.77
2018-12-15T03:33:24.984Z,14.37
2018-12-15T03:35:53.372Z,16.63
2018-12-15T03:38:21.576Z,14.80
2018-12-15T03:40:49.660Z,14.40
2018-12-15T03:43:17.707Z,13.40
2018-12-15T03:45:45.961Z,14.67
2018-12-15T03:48:14.061Z,14.93
2018-12-15T03:50:42.653Z,13.30
2018-12-15T03:53:11.497Z,16.17
2018-12-15T03:55:40.003Z,16.93
2018-12-15T03:58:08.884Z,14.77
2018-12-15T04:00:37.816Z,15.07
2018-12-15T04:03:07.006Z,15.57
2018-12-15T04:05:35.902Z,15.13
2018-12-15T04:08:04.611Z,15.77
2018-12-15T04:10:33.034Z,17.57
2018-12-15T04:13:01.532Z,15.50
2018-12-15T04:15:30.829Z,13.50
2018-12-15T04:18:03.750Z,14.17
2018-12-15T04:20:29.440Z,16.07
2018-12-15T04:22:57.651Z,16.00
2018-12-15T04:25:25.744Z,13.43
2018-12-15T04:27:53.797Z,14.97
2018-12-15T04:30:21.887Z,16.27
2018-12-15T04:32:49.964Z,15.80
2018-12-15T04:35:18.325Z,13.87
2018-12-15T04:37:46.575Z,17.13
2018-12-15T04:40:15.021Z,16.40
2018-12-15T04:42:43.254Z,16.60
2018-12-15T04:45:11.356Z,17.10
2018-12-15T04:47:39.514Z,18.93
2018-12-15T04:50:07.748Z,16.97
2018-12-15T04:52:35.869Z,17.30
2018-12-15T04:55:05.200Z,17.90
2018-12-15T04:57:34.161Z,16.37
2018-12-15T05:00:04.069Z,16.40
2018-12-15T05:02:33.485Z,15.97
2018-12-15T05:05:05.231Z,17.63
2018-12-15T05:07:35.583Z,16.03
2018-12-15T05:10:06.603Z,16.77
2018-12-15T05:12:35.485Z,16.87
2018-12-15T05:15:05.166Z,17.77
2018-12-15T05:17:34.049Z,16.17
2018-12-15T05:20:03.131Z,17.13
2018-12-15T05:22:32.148Z,15.83
2018-12-15T05:25:00.692Z,15.20
2018-12-15T05:27:29.392Z,16.80
2018-12-15T05:29:58.134Z,16.03
2018-12-15T05:32:26.527Z,16.90
2018-12-15T05:34:55.754Z,19.37
2018-12-15T05:37:24.946Z,16.37
2018-12-15T05:39:53.837Z,16.37
2018-12-15T05:42:22.778Z,19.13
2018-12-15T05:44:52.089Z,17.27
2018-12-15T05:47:20.681Z,18.37
2018-12-15T05:49:49.614Z,17.73
2018-12-15T05:52:18.715Z,18.83
2018-12-15T05:54:47.105Z,17.90
2018-12-15T05:57:15.868Z,15.63
2018-12-15T05:59:44.552Z,18.43
2018-12-15T06:02:15.191Z,17.87
2018-12-15T06:04:44.003Z,19.13
2018-12-15T06:07:13.426Z,16.97
2018-12-15T06:09:42.679Z,16.17
2018-12-15T06:12:11.628Z,17.93
2018-12-15T06:14:40.664Z,16.93
2018-12-15T06:17:10.243Z,18.03
2018-12-15T06:19:38.453Z,16.27
2018-12-15T06:22:07.182Z,18.07
2018-12-15T06:24:35.252Z,18.93
2018-12-15T06:27:03.549Z,20.07
2018-12-15T06:29:31.757Z,15.90
2018-12-15T06:32:00.014Z,18.53
2018-12-15T06:34:28.701Z,18.37
2018-12-15T06:36:56.813Z,19.73
2018-12-15T06:39:25.125Z,17.80
2018-12-15T06:41:54.021Z,18.10
2018-12-15T06:44:22.528Z,17.80
2018-12-15T06:46:51.578Z,18.37
2018-12-15T06:49:21.097Z,19.23
2018-12-15T06:51:49.361Z,19.10
2018-12-15T06:54:19.235Z,17.90
2018-12-15T06:56:47.564Z,18.60
2018-12-15T06:59:16.412Z,17.87
2018-12-15T07:01:45.286Z,17.87
2018-12-15T07:04:13.849Z,19.30
2018-12-15T07:06:42.390Z,21.03
2018-12-15T07:09:20.609Z,20.43
2018-12-15T07:11:49.971Z,19.23
2018-12-15T07:14:18.457Z,19.27
2018-12-15T07:16:47.202Z,18.70
2018-12-15T07:19:15.831Z,17.73
2018-12-15T07:21:44.659Z,20.93
2018-12-15T07:24:14.073Z,21.20
2018-12-15T07:26:42.956Z,21.00
2018-12-15T07:29:11.253Z,20.70
2018-12-15T07:31:39.866Z,20.43
2018-12-15T07:34:08.999Z,18.67
2018-12-15T07:36:37.802Z,18.97
2018-12-15T07:39:07.812Z,19.50
2018-12-15T07:41:36.424Z,20.37
2018-12-15T07:44:05.084Z,21.07
2018-12-15T07:46:33.894Z,17.07
2018-12-15T07:49:02.461Z,19.17
2018-12-15T07:51:31.253Z,19.70
2018-12-15T07:53:59.777Z,20.00
2018-12-15T07:56:29.123Z,19.10
2018-12-15T07:58:58.113Z,20.07
2018-12-15T08:01:27.166Z,20.27
2018-12-15T08:03:56.767Z,19.00
2018-12-15T08:06:25.770Z,20.57
2018-12-15T08:08:54.468Z,17.87
2018-12-15T08:11:28.993Z,18.60
2018-12-15T08:14:02.887Z,18.63
2018-12-15T08:16:31.992Z,19.67
2018-12-15T08:19:00.767Z,18.50
2018-12-15T08:21:29.478Z,20.50
2018-12-15T08:23:58.322Z,19.43
2018-12-15T08:26:26.876Z,18.43
2018-12-15T08:28:56.469Z,18.17
2018-12-15T08:31:25.895Z,18.17
2018-12-15T08:33:54.655Z,18.90
2018-12-15T08:36:23.361Z,17.83
2018-12-15T08:38:51.773Z,18.17
2018-12-15T08:41:20.507Z,17.53
2018-12-15T08:43:49.424Z,16.93
2018-12-15T08:46:18.707Z,18.20
2018-12-15T08:48:47.143Z,17.30
2018-12-15T08:51:16.097Z,14.93
2018-12-15T08:53:44.601Z,14.73
2018-12-15T08:56:13.504Z,13.93
2018-12-15T08:58:41.789Z,14.30
2018-12-15T09:01:09.886Z,13.17
2018-12-15T09:03:38.246Z,15.80
2018-12-15T09:06:06.478Z,18.47
2018-12-15T09:08:34.805Z,11.10
2018-12-15T09:11:03.088Z,8.77
2018-12-15T09:13:31.646Z,12.60
2018-12-15T09:15:59.884Z,12.40
2018-12-15T09:18:28.379Z,18.33
2018-12-15T09:20:56.498Z,17.83
2018-12-15T09:23:24.843Z,15.97
2018-12-15T09:25:53.347Z,17.57
2018-12-15T09:28:21.687Z,15.43
2018-12-15T09:30:49.779Z,18.17
2018-12-15T09:33:19.251Z,16.40
2018-12-15T09:35:48.609Z,18.83
2018-12-15T09:38:17.099Z,15.87
2018-12-15T09:40:46.012Z,16.80
2018-12-15T09:43:15.146Z,14.40
2018-12-15T09:45:43.750Z,17.23
2018-12-15T09:48:29.219Z,14.00
2018-12-15T09:50:59.769Z,16.63
2018-12-15T09:53:29.978Z,17.77
2018-12-15T09:56:00.883Z,18.13
2018-12-15T09:58:29.475Z,20.60
2018-12-15T10:00:58.561Z,18.13
2018-12-15T10:03:27.213Z,22.33
2018-12-15T10:05:56.736Z,17.87
2018-12-15T10:08:25.905Z,16.93
2018-12-15T10:10:59.528Z,19.93
2018-12-15T10:13:28.186Z,18.67
2018-12-15T10:15:56.706Z,14.13
2018-12-15T10:18:25.382Z,16.77
2018-12-15T10:20:54.268Z,17.73
2018-12-15T10:23:23.028Z,16.27
2018-12-15T10:25:51.718Z,16.77
2018-12-15T10:28:21.163Z,16.80
2018-12-15T10:30:55.558Z,18.73
2018-12-15T10:33:23.876Z,19.37
2018-12-15T10:35:53.127Z,16.50
2018-12-15T10:38:23.136Z,15.73
2018-12-15T10:40:51.839Z,16.20
2018-12-15T10:43:20.893Z,17.13
2018-12-15T10:45:49.460Z,18.00
2018-12-15T10:48:18.991Z,14.93
2018-12-15T10:50:48.895Z,16.60
2018-12-15T10:53:18.145Z,13.77
2018-12-15T10:55:46.913Z,16.17
2018-12-15T10:58:15.554Z,18.50
2018-12-15T11:00:49.991Z,17.13
2018-12-15T11:03:18.613Z,16.97
2018-12-15T11:05:48.250Z,17.53
2018-12-15T11:08:17.096Z,18.00
2018-12-15T11:10:45.939Z,16.03
2018-12-15T11:13:14.518Z,17.07
2018-12-15T11:15:43.357Z,19.43
2018-12-15T11:18:11.511Z,11.73
2018-12-15T11:20:40.755Z,14.93
2018-12-15T11:23:09.511Z,16.73
2018-12-15T11:25:38.701Z,16.10
2018-12-15T11:28:07.680Z,16.53
2018-12-15T11:30:36.985Z,15.13
2018-12-15T11:33:05.524Z,10.43
2018-12-15T11:35:34.506Z,15.77
2018-12-15T11:38:03.490Z,15.23
2018-12-15T11:40:32.435Z,12.10
2018-12-15T11:43:01.253Z,13.40
2018-12-15T11:45:30.134Z,14.77
2018-12-15T11:47:59.238Z,16.03
2018-12-15T11:50:28.205Z,14.03
2018-12-15T11:52:56.996Z,18.17
2018-12-15T11:55:25.782Z,14.67
2018-12-15T11:57:54.358Z,16.03
2018-12-15T12:00:23.178Z,14.67
2018-12-15T12:02:51.451Z,15.57
2018-12-15T12:05:19.887Z,15.07
2018-12-15T12:07:48.425Z,14.80
2018-12-15T12:10:21.976Z,10.10
2018-12-15T12:12:51.813Z,14.83
2018-12-15T12:15:20.995Z,13.00
2018-12-15T12:17:49.347Z,14.03
2018-12-15T12:20:18.052Z,16.40
2018-12-15T12:22:46.143Z,13.57
2018-12-15T12:25:14.385Z,14.50
2018-12-15T12:27:42.706Z,11.67
2018-12-15T12:30:11.663Z,15.00
2018-12-15T12:32:40.415Z,14.03
2018-12-15T12:35:09.231Z,17.77
2018-12-15T12:37:37.652Z,12.97
2018-12-15T12:40:06.659Z,15.03
2018-12-15T12:42:36.418Z,14.23
2018-12-15T12:45:05.653Z,14.50
2018-12-15T12:47:34.462Z,14.07
2018-12-15T12:50:05.427Z,15.10
2018-12-15T12:52:33.812Z,16.60
2018-12-15T12:55:02.809Z,16.27
2018-12-15T12:57:31.406Z,14.73
2018-12-15T12:59:59.520Z,13.17
2018-12-15T13:02:28.361Z,17.87
2018-12-15T13:04:56.867Z,14.40
2018-12-15T13:07:25.709Z,14.00
2018-12-15T13:09:55.394Z,11.20
2018-12-15T13:12:23.838Z,10.97
2018-12-15T13:14:52.635Z,12.70
2018-12-15T13:17:21.683Z,12.60
2018-12-15T13:19:50.685Z,15.47
2018-12-15T13:22:19.474Z,14.20
2018-12-15T13:25:58.604Z,12.13
2018-12-15T13:28:32.463Z,15.68
2018-12-15T13:31:01.264Z,15.07
2018-12-15T13:33:35.580Z,15.00
2018-12-15T13:36:16.149Z,16.93
2018-12-15T13:38:44.616Z,13.80
2018-12-15T13:41:13.404Z,16.23
2018-12-15T13:43:42.770Z,13.47
2018-12-15T13:46:11.563Z,14.50
2018-12-15T13:48:40.735Z,16.37
2018-12-15T13:51:09.946Z,15.80
2018-12-15T13:53:38.481Z,14.60
2018-12-15T13:56:07.558Z,16.20
2018-12-15T13:58:41.208Z,10.87
2018-12-15T14:01:09.705Z,13.30
2018-12-15T14:03:38.444Z,15.30
2018-12-15T14:06:08.021Z,16.33
2018-12-15T14:08:36.806Z,14.13
2018-12-15T14:11:05.530Z,13.53
2018-12-15T14:13:34.506Z,14.67
2018-12-15T14:16:03.140Z,15.33
2018-12-15T14:18:31.571Z,16.33
2018-12-15T14:21:00.172Z,15.13
2018-12-15T14:23:28.991Z,15.97
2018-12-15T14:25:58.050Z,17.87
2018-12-15T14:28:26.914Z,18.77
2018-12-15T14:30:55.924Z,16.30
2018-12-15T14:33:24.274Z,15.73
2018-12-15T14:35:52.880Z,15.77
2018-12-15T14:38:21.610Z,14.97
2018-12-15T14:40:50.143Z,14.93
2018-12-15T14:43:19.193Z,14.10
2018-12-15T14:45:47.857Z,17.03
2018-12-15T14:48:16.484Z,15.07
2018-12-15T14:50:45.229Z,14.23
2018-12-15T14:53:13.836Z,13.83
2018-12-15T14:55:42.587Z,15.00
2018-12-15T14:58:11.409Z,9.97
2018-12-15T15:00:39.982Z,14.50
2018-12-15T15:03:09.570Z,16.03
2018-12-15T15:05:38.535Z,15.30
2018-12-15T15:08:07.081Z,16.03
2018-12-15T15:10:35.611Z,15.47
2018-12-15T15:13:04.524Z,15.93
2018-12-15T15:15:33.355Z,13.87
2018-12-15T15:18:02.270Z,16.67
2018-12-15T15:20:30.931Z,16.87
2018-12-15T15:22:59.974Z,19.03
2018-12-15T15:25:28.856Z,18.10
2018-12-15T15:27:57.823Z,18.03
2018-12-15T15:30:26.655Z,18.10
2018-12-15T15:32:54.917Z,8.20
2018-12-15T15:35:23.444Z,19.30
2018-12-15T15:37:51.813Z,16.83
2018-12-15T15:40:20.181Z,17.43
2018-12-15T15:42:48.897Z,17.77
2018-12-15T15:45:17.431Z,21.40
2018-12-15T15:47:46.628Z,17.33
2018-12-15T15:50:15.201Z,14.93
2018-12-15T15:52:43.920Z,20.13
2018-12-15T15:55:12.650Z,18.40
2018-12-15T15:57:41.161Z,14.37
2018-12-15T16:00:11.054Z,16.27
2018-12-15T16:02:39.969Z,17.77
2018-12-15T16:05:08.529Z,18.60
2018-12-15T16:07:36.681Z,20.47
2018-12-15T16:10:08.835Z,20.93
2018-12-15T16:12:36.925Z,9.17
2018-12-15T16:15:06.858Z,17.50
2018-12-15T16:17:35.256Z,16.77
2018-12-15T16:20:04.599Z,21.33
2018-12-15T16:22:33.443Z,19.87
2018-12-15T16:25:01.953Z,19.67
2018-12-15T16:27:30.022Z,18.13
2018-12-15T16:29:58.380Z,18.83
2018-12-15T16:32:26.898Z,15.90
2018-12-15T16:34:55.139Z,15.63
2018-12-15T16:37:23.413Z,15.07
2018-12-15T16:39:51.469Z,18.50
2018-12-15T16:42:19.677Z,17.90
2018-12-15T16:44:47.894Z,18.13
2018-12-15T16:47:16.152Z,19.20
2018-12-15T16:49:44.298Z,17.37
2018-12-15T16:52:12.656Z,15.60
2018-12-15T16:54:41.127Z,17.00
2018-12-15T16:57:09.421Z,16.70
2018-12-15T16:59:38.879Z,17.97
2018-12-15T17:02:10.215Z,18.90
2018-12-15T17:04:39.289Z,15.33
2018-12-15T17:07:08.337Z,19.20
2018-12-15T17:09:36.962Z,15.50
2018-12-15T17:12:05.682Z,13.27
2018-12-15T17:14:34.294Z,15.70
2018-12-15T17:17:02.790Z,15.50
2018-12-15T17:19:31.841Z,18.70
2018-12-15T17:22:00.964Z,13.27
2018-12-15T17:24:29.987Z,16.30
2018-12-15T17:26:59.758Z,16.67
2018-12-15T17:29:28.286Z,17.20
2018-12-15T17:31:56.925Z,13.67
2018-12-15T17:34:25.546Z,14.83
2018-12-15T17:36:54.668Z,24.33
2018-12-15T17:39:23.739Z,19.37
2018-12-15T17:41:52.343Z,17.03
2018-12-15T17:44:20.832Z,14.63
2018-12-15T17:46:49.543Z,15.90
2018-12-15T17:49:18.522Z,19.30
2018-12-15T17:51:47.097Z,15.07
2018-12-15T17:54:16.693Z,17.10
2018-12-15T17:56:46.086Z,21.40
2018-12-15T17:59:14.723Z,18.07
2018-12-15T18:01:43.057Z,21.07
2018-12-15T18:04:11.821Z,15.20
2018-12-15T18:06:41.211Z,17.43
2018-12-15T18:09:10.322Z,17.47
2018-12-15T18:11:39.291Z,18.77
2018-12-15T18:14:08.363Z,19.00
2018-12-15T18:16:36.619Z,19.70
2018-12-15T18:19:05.256Z,5.97
2018-12-15T18:21:34.782Z,19.17
2018-12-15T18:24:03.287Z,14.97
2018-12-15T18:26:31.792Z,16.23
2018-12-15T18:28:59.874Z,15.00
2018-12-15T18:31:28.256Z,16.70
2018-12-15T18:33:56.545Z,6.47
2018-12-15T18:36:25.070Z,12.57
2018-12-15T18:38:56.055Z,16.40
2018-12-15T18:41:24.519Z,17.30
2018-12-15T18:43:54.145Z,15.37
2018-12-15T18:46:22.207Z,15.47
2018-12-15T18:48:50.501Z,12.30
2018-12-15T18:51:18.775Z,13.37
2018-12-15T18:53:47.686Z,15.73
2018-12-15T18:56:16.492Z,12.43
2018-12-15T18:58:45.602Z,8.67
2018-12-15T19:01:13.972Z,13.17
2018-12-15T19:03:42.839Z,14.80
2018-12-15T19:06:12.006Z,13.33
2018-12-15T19:08:40.575Z,12.37
2018-12-15T19:11:09.479Z,13.97
2018-12-15T19:13:37.947Z,15.63
2018-12-15T19:16:06.522Z,15.13
2018-12-15T19:18:36.269Z,10.93
2018-12-15T19:21:05.044Z,14.80
2018-12-15T19:23:34.447Z,12.17
2018-12-15T19:26:08.097Z,13.00
2018-12-15T19:28:36.830Z,12.77
2018-12-15T19:31:06.018Z,13.73
2018-12-15T19:33:34.858Z,15.37
2018-12-15T19:36:03.883Z,7.57
2018-12-15T19:38:32.877Z,12.67
2018-12-15T19:41:01.598Z,14.70
2018-12-15T19:43:30.803Z,12.73
2018-12-15T19:45:59.810Z,14.73
2018-12-15T19:48:28.716Z,13.73
2018-12-15T19:50:57.575Z,13.77
2018-12-15T19:53:26.396Z,14.23
2018-12-15T19:55:55.498Z,16.57
2018-12-15T19:58:24.626Z,14.97
2018-12-15T20:00:53.913Z,17.13
2018-12-15T20:03:22.836Z,16.00
2018-12-15T20:05:51.953Z,16.23
2018-12-15T20:08:20.299Z,16.80
2018-12-15T20:10:48.485Z,16.63
2018-12-15T20:13:16.727Z,15.67
2018-12-15T20:15:44.942Z,14.37
2018-12-15T20:18:13.011Z,16.83
2018-12-15T20:20:41.512Z,18.03
2018-12-15T20:23:09.637Z,19.27
2018-12-15T20:25:38.098Z,17.87
2018-12-15T20:28:06.438Z,16.03
2018-12-15T20:30:34.754Z,16.00
2018-12-15T20:33:02.991Z,15.27
2018-12-15T20:35:31.362Z,18.33
2018-12-15T20:37:59.535Z,17.47
2018-12-15T20:40:27.644Z,17.73
2018-12-15T20:42:56.146Z,17.27
2018-12-15T20:45:34.905Z,17.33
2018-12-15T20:48:06.694Z,19.30
2018-12-15T20:50:35.027Z,19.43
2018-12-15T20:53:03.241Z,19.53
2018-12-15T20:55:31.566Z,18.80
2018-12-15T20:58:00.244Z,19.93
2018-12-15T21:00:28.888Z,23.13
2018-12-15T21:02:57.165Z,17.37
2018-12-15T21:05:25.387Z,19.70
2018-12-15T21:07:53.499Z,17.80
2018-12-15T21:10:22.214Z,19.67
2018-12-15T21:12:50.560Z,19.07
2018-12-15T21:15:22.234Z,17.77
2018-12-15T21:17:50.683Z,17.03
2018-12-15T21:20:19.038Z,18.00
2018-12-15T21:22:47.273Z,18.97
2018-12-15T21:25:15.702Z,18.47
2018-12-15T21:27:44.197Z,17.87
2018-12-15T21:30:12.548Z,18.03
2018-12-15T21:32:41.797Z,19.77
2018-12-15T21:35:10.702Z,17.83
2018-12-15T21:37:39.304Z,19.63
2018-12-15T21:40:08.019Z,21.93
2018-12-15T21:42:36.463Z,20.63
2018-12-15T21:45:05.686Z,19.77
2018-12-15T21:47:34.207Z,20.03
2018-12-15T21:50:03.094Z,18.40
2018-12-15T21:52:31.450Z,19.63
2018-12-15T21:54:59.812Z,18.60
2018-12-15T21:57:28.431Z,20.93
2018-12-15T21:59:56.792Z,21.07
2018-12-15T22:02:25.895Z,20.80
2018-12-15T22:04:54.128Z,22.47
2018-12-15T22:07:22.314Z,21.43
2018-12-15T22:09:51.492Z,20.53
2018-12-15T22:12:19.853Z,22.47
2018-12-15T22:14:48.540Z,20.70
2018-12-15T22:17:17.218Z,17.70
2018-12-15T22:19:45.448Z,20.60
2018-12-15T22:22:14.072Z,23.40
2018-12-15T22:24:42.586Z,21.93
2018-12-15T22:27:11.382Z,19.97
2018-12-15T22:29:40.090Z,20.00
2018-12-15T22:32:08.145Z,23.00
2018-12-15T22:34:36.229Z,20.30
2018-12-15T22:37:04.594Z,20.10
2018-12-15T22:39:33.172Z,21.93
2018-12-15T22:42:01.734Z,23.77
2018-12-15T22:44:29.841Z,19.27
2018-12-15T22:46:58.135Z,17.30
2018-12-15T22:49:26.678Z,20.00
2018-12-15T22:51:54.809Z,20.27
2018-12-15T22:54:23.534Z,16.70
2018-12-15T22:56:52.095Z,19.50
2018-12-15T22:59:20.325Z,20.80
2018-12-15T23:01:48.598Z,19.93
2018-12-15T23:04:16.950Z,22.73
2018-12-15T23:06:45.283Z,20.13
2018-12-15T23:09:13.476Z,22.10
2018-12-15T23:11:41.769Z,20.70
2018-12-15T23:14:09.865Z,19.60
2018-12-15T23:16:39.320Z,19.30
2018-12-15T23:19:07.683Z,22.63
2018-12-15T23:21:36.223Z,21.17
2018-12-15T23:24:04.706Z,21.27
2018-12-15T23:26:33.032Z,18.27
2018-12-15T23:29:01.132Z,22.50
2018-12-15T23:31:29.495Z,20.30
2018-12-15T23:33:57.897Z,19.50
2018-12-15T23:36:26.205Z,20.27
2018-12-15T23:38:54.342Z,19.13
2018-12-15T23:41:23.026Z,19.50
2018-12-15T23:43:51.474Z,19.37
2018-12-15T23:46:20.737Z,20.03
2018-12-15T23:48:49.129Z,19.83
2018-12-15T23:51:18.244Z,18.93
2018-12-15T23:53:46.454Z,19.87
2018-12-15T23:56:14.702Z,21.93
2018-12-15T23:58:43.046Z,20.50
